sensor_id;sensor_type;location;lat;lon;timestamp;temperature;humidity
580;DHT22;276;48.392;9.950;2023-07-02T00:01:13;20.30;99.90
580;DHT22;276;48.392;9.950;2023-07-02T00:03:39;20.30;99.90
580;DHT22;276;48.392;9.950;2023-07-02T00:06:05;20.30;99.90
580;DHT22;276;48.392;9.950;2023-07-02T00:08:30;20.20;99.90
580;DHT22;276;48.392;9.950;2023-07-02T00:10:56;20.20;99.90
580;DHT22;276;48.392;9.950;2023-07-02T00:13:22;20.10;99.90
580;DHT22;276;48.392;9.950;2023-07-02T00:15:47;20.00;99.90
580;DHT22;276;48.392;9.950;2023-07-02T00:18:13;19.90;99.90
580;DHT22;276;48.392;9.950;2023-07-02T00:20:42;19.90;99.90
580;DHT22;276;48.392;9.950;2023-07-02T00:23:10;19.80;99.90
580;DHT22;276;48.392;9.950;2023-07-02T00:25:38;19.70;99.90
580;DHT22;276;48.392;9.950;2023-07-02T00:28:06;19.70;99.90
580;DHT22;276;48.392;9.950;2023-07-02T00:30:32;19.60;99.90
580;DHT22;276;48.392;9.950;2023-07-02T00:32:57;19.60;99.90
580;DHT22;276;48.392;9.950;2023-07-02T00:35:25;19.60;99.90
580;DHT22;276;48.392;9.950;2023-07-02T00:37:51;19.60;99.90
580;DHT22;276;48.392;9.950;2023-07-02T00:40:18;19.60;99.90
580;DHT22;276;48.392;9.950;2023-07-02T00:42:44;19.60;99.90
580;DHT22;276;48.392;9.950;2023-07-02T00:45:10;19.60;99.90
580;DHT22;276;48.392;9.950;2023-07-02T00:47:35;19.60;99.90
580;DHT22;276;48.392;9.950;2023-07-02T00:50:03;19.70;99.90
580;DHT22;276;48.392;9.950;2023-07-02T00:52:32;19.80;99.90
580;DHT22;276;48.392;9.950;2023-07-02T00:55:01;19.80;99.90
580;DHT22;276;48.392;9.950;2023-07-02T00:57:26;19.90;99.90
580;DHT22;276;48.392;9.950;2023-07-02T00:59:58;19.90;99.90
580;DHT22;276;48.392;9.950;2023-07-02T01:02:27;19.90;99.90
580;DHT22;276;48.392;9.950;2023-07-02T01:04:55;20.00;99.90
580;DHT22;276;48.392;9.950;2023-07-02T01:07:23;20.00;99.90
580;DHT22;276;48.392;9.950;2023-07-02T01:09:50;20.00;99.90
580;DHT22;276;48.392;9.950;2023-07-02T01:12:17;20.00;99.90
580;DHT22;276;48.392;9.950;2023-07-02T01:14:54;20.00;99.90
580;DHT22;276;48.392;9.950;2023-07-02T01:17:22;20.00;99.90
580;DHT22;276;48.392;9.950;2023-07-02T01:19:49;20.00;99.90
580;DHT22;276;48.392;9.950;2023-07-02T01:22:22;20.00;99.90
580;DHT22;276;48.392;9.950;2023-07-02T01:24:51;20.10;99.90
580;DHT22;276;48.392;9.950;2023-07-02T01:27:17;20.10;99.90
580;DHT22;276;48.392;9.950;2023-07-02T01:29:45;20.00;99.90
580;DHT22;276;48.392;9.950;2023-07-02T01:32:15;20.00;99.90
580;DHT22;276;48.392;9.950;2023-07-02T01:34:41;20.00;99.90
580;DHT22;276;48.392;9.950;2023-07-02T01:37:09;20.00;99.90
580;DHT22;276;48.392;9.950;2023-07-02T01:39:35;20.00;99.90
580;DHT22;276;48.392;9.950;2023-07-02T01:44:36;20.00;99.90
580;DHT22;276;48.392;9.950;2023-07-02T01:47:03;20.00;99.90
580;DHT22;276;48.392;9.950;2023-07-02T01:49:28;20.00;99.90
580;DHT22;276;48.392;9.950;2023-07-02T01:51:55;20.10;99.90
580;DHT22;276;48.392;9.950;2023-07-02T01:54:25;20.00;99.90
580;DHT22;276;48.392;9.950;2023-07-02T01:56:52;20.00;99.90
580;DHT22;276;48.392;9.950;2023-07-02T01:59:18;20.00;99.90
580;DHT22;276;48.392;9.950;2023-07-02T02:01:50;20.00;99.90
580;DHT22;276;48.392;9.950;2023-07-02T02:04:16;20.00;99.90
580;DHT22;276;48.392;9.950;2023-07-02T02:06:42;20.00;99.90
580;DHT22;276;48.392;9.950;2023-07-02T02:09:08;20.00;99.90
580;DHT22;276;48.392;9.950;2023-07-02T02:11:38;20.00;99.90
580;DHT22;276;48.392;9.950;2023-07-02T02:14:06;20.00;99.90
580;DHT22;276;48.392;9.950;2023-07-02T02:16:35;20.00;99.90
580;DHT22;276;48.392;9.950;2023-07-02T02:19:00;20.00;99.90
580;DHT22;276;48.392;9.950;2023-07-02T02:21:27;20.00;99.90
580;DHT22;276;48.392;9.950;2023-07-02T02:23:53;20.00;99.90
580;DHT22;276;48.392;9.950;2023-07-02T02:26:26;19.90;99.90
580;DHT22;276;48.392;9.950;2023-07-02T02:28:51;19.90;99.90
580;DHT22;276;48.392;9.950;2023-07-02T02:31:17;19.90;99.90
580;DHT22;276;48.392;9.950;2023-07-02T02:33:45;19.90;99.90
580;DHT22;276;48.392;9.950;2023-07-02T02:36:13;19.80;99.90
580;DHT22;276;48.392;9.950;2023-07-02T02:38:42;19.80;99.90
580;DHT22;276;48.392;9.950;2023-07-02T02:41:08;19.80;99.90
580;DHT22;276;48.392;9.950;2023-07-02T02:43:36;19.80;99.90
580;DHT22;276;48.392;9.950;2023-07-02T02:46:01;19.80;99.90
580;DHT22;276;48.392;9.950;2023-07-02T02:48:27;19.80;99.90
580;DHT22;276;48.392;9.950;2023-07-02T02:50:52;19.80;99.90
580;DHT22;276;48.392;9.950;2023-07-02T02:53:23;19.70;99.90
580;DHT22;276;48.392;9.950;2023-07-02T02:55:48;19.70;99.90
580;DHT22;276;48.392;9.950;2023-07-02T02:58:14;19.70;99.90
580;DHT22;276;48.392;9.950;2023-07-02T03:00:40;19.70;99.90
580;DHT22;276;48.392;9.950;2023-07-02T03:03:13;19.70;99.90
580;DHT22;276;48.392;9.950;2023-07-02T03:05:39;19.70;99.90
580;DHT22;276;48.392;9.950;2023-07-02T03:08:06;19.60;99.90
580;DHT22;276;48.392;9.950;2023-07-02T03:10:32;19.60;99.90
580;DHT22;276;48.392;9.950;2023-07-02T03:13:00;19.60;99.90
580;DHT22;276;48.392;9.950;2023-07-02T03:15:26;19.50;99.90
580;DHT22;276;48.392;9.950;2023-07-02T03:17:54;19.50;99.90
580;DHT22;276;48.392;9.950;2023-07-02T03:20:19;19.50;99.90
580;DHT22;276;48.392;9.950;2023-07-02T03:22:47;19.50;99.90
580;DHT22;276;48.392;9.950;2023-07-02T03:25:13;19.50;99.90
580;DHT22;276;48.392;9.950;2023-07-02T03:27:42;19.50;99.90
580;DHT22;276;48.392;9.950;2023-07-02T03:30:07;19.40;99.90
580;DHT22;276;48.392;9.950;2023-07-02T03:32:33;19.40;99.90
580;DHT22;276;48.392;9.950;2023-07-02T03:34:59;19.40;99.90
580;DHT22;276;48.392;9.950;2023-07-02T03:37:24;19.40;99.90
580;DHT22;276;48.392;9.950;2023-07-02T03:39:50;19.40;99.90
580;DHT22;276;48.392;9.950;2023-07-02T03:42:18;19.40;99.90
580;DHT22;276;48.392;9.950;2023-07-02T03:44:44;19.40;99.90
580;DHT22;276;48.392;9.950;2023-07-02T03:47:09;19.50;99.90
580;DHT22;276;48.392;9.950;2023-07-02T03:49:37;19.40;99.90
580;DHT22;276;48.392;9.950;2023-07-02T03:52:03;19.40;99.90
580;DHT22;276;48.392;9.950;2023-07-02T03:54:29;19.40;99.90
580;DHT22;276;48.392;9.950;2023-07-02T03:56:57;19.40;99.90
580;DHT22;276;48.392;9.950;2023-07-02T03:59:25;19.40;99.90
580;DHT22;276;48.392;9.950;2023-07-02T04:01:51;19.40;99.90
580;DHT22;276;48.392;9.950;2023-07-02T04:04:16;19.50;99.90
580;DHT22;276;48.392;9.950;2023-07-02T04:06:42;19.50;99.90
580;DHT22;276;48.392;9.950;2023-07-02T04:09:07;19.50;99.90
580;DHT22;276;48.392;9.950;2023-07-02T04:11:35;19.50;99.90
580;DHT22;276;48.392;9.950;2023-07-02T04:14:01;19.50;99.90
580;DHT22;276;48.392;9.950;2023-07-02T04:16:31;19.50;99.90
580;DHT22;276;48.392;9.950;2023-07-02T04:18:57;19.60;99.90
580;DHT22;276;48.392;9.950;2023-07-02T04:21:22;19.60;99.90
580;DHT22;276;48.392;9.950;2023-07-02T04:23:48;19.50;99.90
580;DHT22;276;48.392;9.950;2023-07-02T04:26:16;19.40;99.90
580;DHT22;276;48.392;9.950;2023-07-02T04:28:46;19.40;99.90
580;DHT22;276;48.392;9.950;2023-07-02T04:31:14;19.40;99.90
580;DHT22;276;48.392;9.950;2023-07-02T04:33:40;19.40;99.90
580;DHT22;276;48.392;9.950;2023-07-02T04:36:08;19.40;99.90
580;DHT22;276;48.392;9.950;2023-07-02T04:38:33;19.40;99.90
580;DHT22;276;48.392;9.950;2023-07-02T04:41:04;19.40;99.90
580;DHT22;276;48.392;9.950;2023-07-02T04:43:33;19.40;99.90
580;DHT22;276;48.392;9.950;2023-07-02T04:45:59;19.40;99.90
580;DHT22;276;48.392;9.950;2023-07-02T04:48:24;19.40;99.90
580;DHT22;276;48.392;9.950;2023-07-02T04:50:50;19.30;99.90
580;DHT22;276;48.392;9.950;2023-07-02T04:53:16;19.40;99.90
580;DHT22;276;48.392;9.950;2023-07-02T04:55:43;19.40;99.90
580;DHT22;276;48.392;9.950;2023-07-02T04:58:08;19.40;99.90
580;DHT22;276;48.392;9.950;2023-07-02T05:00:39;19.40;99.90
580;DHT22;276;48.392;9.950;2023-07-02T05:03:06;19.40;99.90
580;DHT22;276;48.392;9.950;2023-07-02T05:05:32;19.40;99.90
580;DHT22;276;48.392;9.950;2023-07-02T05:07:58;19.40;99.90
580;DHT22;276;48.392;9.950;2023-07-02T05:10:23;19.40;99.90
580;DHT22;276;48.392;9.950;2023-07-02T05:12:49;19.40;99.90
580;DHT22;276;48.392;9.950;2023-07-02T05:15:17;19.30;99.90
580;DHT22;276;48.392;9.950;2023-07-02T05:17:45;19.30;99.90
580;DHT22;276;48.392;9.950;2023-07-02T05:20:10;19.30;99.90
580;DHT22;276;48.392;9.950;2023-07-02T05:22:36;19.30;99.90
580;DHT22;276;48.392;9.950;2023-07-02T05:25:04;19.30;99.90
580;DHT22;276;48.392;9.950;2023-07-02T05:27:30;19.30;99.90
580;DHT22;276;48.392;9.950;2023-07-02T05:29:56;19.30;99.90
580;DHT22;276;48.392;9.950;2023-07-02T05:32:21;19.30;99.90
580;DHT22;276;48.392;9.950;2023-07-02T05:34:52;19.30;99.90
580;DHT22;276;48.392;9.950;2023-07-02T05:37:17;19.30;99.90
580;DHT22;276;48.392;9.950;2023-07-02T05:39:43;19.30;99.90
580;DHT22;276;48.392;9.950;2023-07-02T05:42:09;19.30;99.90
580;DHT22;276;48.392;9.950;2023-07-02T05:44:37;19.30;99.90
580;DHT22;276;48.392;9.950;2023-07-02T05:47:02;19.30;99.90
580;DHT22;276;48.392;9.950;2023-07-02T05:49:28;19.30;99.90
580;DHT22;276;48.392;9.950;2023-07-02T05:51:54;19.30;99.90
580;DHT22;276;48.392;9.950;2023-07-02T05:54:20;19.30;99.90
580;DHT22;276;48.392;9.950;2023-07-02T05:56:45;19.30;99.90
580;DHT22;276;48.392;9.950;2023-07-02T05:59:13;19.40;99.90
580;DHT22;276;48.392;9.950;2023-07-02T06:01:43;19.40;99.90
580;DHT22;276;48.392;9.950;2023-07-02T06:04:09;19.40;99.90
580;DHT22;276;48.392;9.950;2023-07-02T06:06:37;19.50;99.90
580;DHT22;276;48.392;9.950;2023-07-02T06:09:02;19.50;99.90
580;DHT22;276;48.392;9.950;2023-07-02T06:11:32;19.60;99.90
580;DHT22;276;48.392;9.950;2023-07-02T06:13:58;19.60;99.90
580;DHT22;276;48.392;9.950;2023-07-02T06:16:24;19.60;99.90
580;DHT22;276;48.392;9.950;2023-07-02T06:18:52;19.60;99.90
580;DHT22;276;48.392;9.950;2023-07-02T06:21:23;19.70;99.90
580;DHT22;276;48.392;9.950;2023-07-02T06:23:50;19.70;99.90
580;DHT22;276;48.392;9.950;2023-07-02T06:26:15;19.80;99.90
580;DHT22;276;48.392;9.950;2023-07-02T06:28:43;19.80;99.90
580;DHT22;276;48.392;9.950;2023-07-02T06:31:10;19.90;99.90
580;DHT22;276;48.392;9.950;2023-07-02T06:33:41;20.00;99.90
580;DHT22;276;48.392;9.950;2023-07-02T06:36:07;20.10;99.90
580;DHT22;276;48.392;9.950;2023-07-02T06:38:33;20.20;99.90
580;DHT22;276;48.392;9.950;2023-07-02T06:40:59;20.20;99.90
580;DHT22;276;48.392;9.950;2023-07-02T06:43:26;20.30;99.90
580;DHT22;276;48.392;9.950;2023-07-02T06:45:52;20.30;99.90
580;DHT22;276;48.392;9.950;2023-07-02T06:48:20;20.30;99.90
580;DHT22;276;48.392;9.950;2023-07-02T06:50:47;20.40;99.90
580;DHT22;276;48.392;9.950;2023-07-02T06:53:13;20.40;99.90
580;DHT22;276;48.392;9.950;2023-07-02T06:55:39;20.50;99.90
580;DHT22;276;48.392;9.950;2023-07-02T06:58:08;20.50;99.90
580;DHT22;276;48.392;9.950;2023-07-02T07:00:34;20.50;99.90
580;DHT22;276;48.392;9.950;2023-07-02T07:03:05;20.60;99.90
580;DHT22;276;48.392;9.950;2023-07-02T07:05:31;20.60;99.90
580;DHT22;276;48.392;9.950;2023-07-02T07:08:00;20.60;99.90
580;DHT22;276;48.392;9.950;2023-07-02T07:10:28;20.70;99.90
580;DHT22;276;48.392;9.950;2023-07-02T07:13:02;20.70;99.90
580;DHT22;276;48.392;9.950;2023-07-02T07:15:32;20.70;99.90
580;DHT22;276;48.392;9.950;2023-07-02T07:17:57;20.70;99.90
580;DHT22;276;48.392;9.950;2023-07-02T07:20:25;20.80;99.90
580;DHT22;276;48.392;9.950;2023-07-02T07:22:51;20.70;99.90
580;DHT22;276;48.392;9.950;2023-07-02T07:25:16;20.70;99.90
580;DHT22;276;48.392;9.950;2023-07-02T07:27:42;20.70;99.90
580;DHT22;276;48.392;9.950;2023-07-02T07:30:10;20.70;99.90
580;DHT22;276;48.392;9.950;2023-07-02T07:32:36;20.70;99.90
580;DHT22;276;48.392;9.950;2023-07-02T07:35:01;20.80;99.90
580;DHT22;276;48.392;9.950;2023-07-02T07:37:27;20.80;99.90
580;DHT22;276;48.392;9.950;2023-07-02T07:39:53;20.80;99.90
580;DHT22;276;48.392;9.950;2023-07-02T07:42:18;20.90;99.90
580;DHT22;276;48.392;9.950;2023-07-02T07:44:47;20.90;99.90
580;DHT22;276;48.392;9.950;2023-07-02T07:47:13;21.00;99.90
580;DHT22;276;48.392;9.950;2023-07-02T07:49:38;21.10;99.90
580;DHT22;276;48.392;9.950;2023-07-02T07:52:04;21.20;99.90
580;DHT22;276;48.392;9.950;2023-07-02T07:54:32;21.20;99.90
580;DHT22;276;48.392;9.950;2023-07-02T07:57:00;21.30;99.90
580;DHT22;276;48.392;9.950;2023-07-02T07:59:26;21.30;99.90
580;DHT22;276;48.392;9.950;2023-07-02T08:01:54;21.40;99.90
580;DHT22;276;48.392;9.950;2023-07-02T08:04:20;21.40;99.90
580;DHT22;276;48.392;9.950;2023-07-02T08:06:50;21.40;99.90
580;DHT22;276;48.392;9.950;2023-07-02T08:09:16;21.50;99.90
580;DHT22;276;48.392;9.950;2023-07-02T08:11:42;21.50;99.90
580;DHT22;276;48.392;9.950;2023-07-02T08:14:09;21.50;99.90
580;DHT22;276;48.392;9.950;2023-07-02T08:16:35;21.50;99.90
580;DHT22;276;48.392;9.950;2023-07-02T08:19:03;21.60;99.90
580;DHT22;276;48.392;9.950;2023-07-02T08:21:31;21.60;99.90
580;DHT22;276;48.392;9.950;2023-07-02T08:23:56;21.70;99.90
580;DHT22;276;48.392;9.950;2023-07-02T08:26:25;21.80;99.90
580;DHT22;276;48.392;9.950;2023-07-02T08:28:50;21.80;99.90
580;DHT22;276;48.392;9.950;2023-07-02T08:31:19;21.80;99.90
580;DHT22;276;48.392;9.950;2023-07-02T08:33:47;21.80;99.90
580;DHT22;276;48.392;9.950;2023-07-02T08:36:13;21.80;99.90
580;DHT22;276;48.392;9.950;2023-07-02T08:38:41;21.80;99.90
580;DHT22;276;48.392;9.950;2023-07-02T08:41:08;21.80;99.90
580;DHT22;276;48.392;9.950;2023-07-02T08:43:37;21.80;99.90
580;DHT22;276;48.392;9.950;2023-07-02T08:46:03;21.80;99.90
580;DHT22;276;48.392;9.950;2023-07-02T08:48:29;21.80;99.90
580;DHT22;276;48.392;9.950;2023-07-02T08:50:55;21.90;99.90
580;DHT22;276;48.392;9.950;2023-07-02T08:53:23;21.90;99.90
580;DHT22;276;48.392;9.950;2023-07-02T08:55:55;22.10;99.90
580;DHT22;276;48.392;9.950;2023-07-02T08:58:21;22.20;99.90
580;DHT22;276;48.392;9.950;2023-07-02T09:03:32;22.60;99.90
580;DHT22;276;48.392;9.950;2023-07-02T09:06:03;22.80;99.90
580;DHT22;276;48.392;9.950;2023-07-02T09:08:28;22.90;99.90
580;DHT22;276;48.392;9.950;2023-07-02T09:11:04;23.10;99.90
580;DHT22;276;48.392;9.950;2023-07-02T09:13:41;23.10;99.90
580;DHT22;276;48.392;9.950;2023-07-02T09:16:19;23.10;99.90
580;DHT22;276;48.392;9.950;2023-07-02T09:21:26;23.10;99.90
580;DHT22;276;48.392;9.950;2023-07-02T09:23:55;23.10;99.90
580;DHT22;276;48.392;9.950;2023-07-02T09:26:21;23.10;99.90
580;DHT22;276;48.392;9.950;2023-07-02T09:28:47;23.10;99.80
580;DHT22;276;48.392;9.950;2023-07-02T09:31:15;23.10;99.70
580;DHT22;276;48.392;9.950;2023-07-02T09:33:41;23.00;97.80
580;DHT22;276;48.392;9.950;2023-07-02T09:36:07;23.00;98.20
580;DHT22;276;48.392;9.950;2023-07-02T09:38:32;23.00;98.70
580;DHT22;276;48.392;9.950;2023-07-02T09:40:59;23.10;98.20
580;DHT22;276;48.392;9.950;2023-07-02T09:43:25;23.10;98.00
580;DHT22;276;48.392;9.950;2023-07-02T09:45:54;23.20;98.00
580;DHT22;276;48.392;9.950;2023-07-02T09:48:24;23.30;98.30
580;DHT22;276;48.392;9.950;2023-07-02T09:50:51;23.30;97.60
580;DHT22;276;48.392;9.950;2023-07-02T09:53:18;23.30;96.70
580;DHT22;276;48.392;9.950;2023-07-02T09:55:46;23.20;96.90
580;DHT22;276;48.392;9.950;2023-07-02T09:58:11;23.30;97.50
580;DHT22;276;48.392;9.950;2023-07-02T10:00:38;23.30;97.90
580;DHT22;276;48.392;9.950;2023-07-02T10:03:04;23.30;98.10
580;DHT22;276;48.392;9.950;2023-07-02T10:05:34;23.40;98.30
580;DHT22;276;48.392;9.950;2023-07-02T10:08:15;23.50;98.50
580;DHT22;276;48.392;9.950;2023-07-02T10:10:46;23.60;98.70
580;DHT22;276;48.392;9.950;2023-07-02T10:13:14;23.70;98.30
580;DHT22;276;48.392;9.950;2023-07-02T10:15:40;23.80;97.60
580;DHT22;276;48.392;9.950;2023-07-02T10:18:07;23.90;97.90
580;DHT22;276;48.392;9.950;2023-07-02T10:20:39;24.00;97.90
580;DHT22;276;48.392;9.950;2023-07-02T10:23:09;24.10;96.70
580;DHT22;276;48.392;9.950;2023-07-02T10:25:36;24.20;97.10
580;DHT22;276;48.392;9.950;2023-07-02T10:28:19;24.20;96.00
580;DHT22;276;48.392;9.950;2023-07-02T10:30:50;24.30;95.90
580;DHT22;276;48.392;9.950;2023-07-02T10:33:18;24.30;95.20
580;DHT22;276;48.392;9.950;2023-07-02T10:35:46;24.40;95.40
580;DHT22;276;48.392;9.950;2023-07-02T10:40:42;24.30;93.60
580;DHT22;276;48.392;9.950;2023-07-02T10:43:08;24.30;94.10
580;DHT22;276;48.392;9.950;2023-07-02T10:45:35;24.40;95.00
580;DHT22;276;48.392;9.950;2023-07-02T10:48:13;24.40;95.30
580;DHT22;276;48.392;9.950;2023-07-02T10:50:38;24.50;95.50
580;DHT22;276;48.392;9.950;2023-07-02T10:53:15;24.40;95.30
580;DHT22;276;48.392;9.950;2023-07-02T10:55:41;24.40;95.10
580;DHT22;276;48.392;9.950;2023-07-02T10:58:09;24.40;94.60
580;DHT22;276;48.392;9.950;2023-07-02T11:00:49;24.40;94.60
580;DHT22;276;48.392;9.950;2023-07-02T11:03:19;24.50;93.90
580;DHT22;276;48.392;9.950;2023-07-02T11:05:46;24.50;93.80
580;DHT22;276;48.392;9.950;2023-07-02T11:08:12;24.60;93.60
580;DHT22;276;48.392;9.950;2023-07-02T11:10:38;24.70;93.60
580;DHT22;276;48.392;9.950;2023-07-02T11:13:17;24.90;93.00
580;DHT22;276;48.392;9.950;2023-07-02T11:15:43;24.90;91.60
580;DHT22;276;48.392;9.950;2023-07-02T11:18:11;25.00;91.10
580;DHT22;276;48.392;9.950;2023-07-02T11:20:38;25.10;90.70
580;DHT22;276;48.392;9.950;2023-07-02T11:23:05;25.10;90.00
580;DHT22;276;48.392;9.950;2023-07-02T11:25:31;25.20;90.30
580;DHT22;276;48.392;9.950;2023-07-02T11:28:06;25.40;90.10
580;DHT22;276;48.392;9.950;2023-07-02T11:30:44;25.40;89.50
580;DHT22;276;48.392;9.950;2023-07-02T11:33:10;25.50;86.40
580;DHT22;276;48.392;9.950;2023-07-02T11:35:36;25.40;84.50
580;DHT22;276;48.392;9.950;2023-07-02T11:38:02;25.40;83.70
580;DHT22;276;48.392;9.950;2023-07-02T11:40:27;25.40;85.00
580;DHT22;276;48.392;9.950;2023-07-02T11:42:53;25.40;85.50
580;DHT22;276;48.392;9.950;2023-07-02T11:45:19;25.50;85.10
580;DHT22;276;48.392;9.950;2023-07-02T11:47:44;25.60;85.40
580;DHT22;276;48.392;9.950;2023-07-02T11:50:12;25.70;86.60
580;DHT22;276;48.392;9.950;2023-07-02T11:52:40;25.80;87.80
580;DHT22;276;48.392;9.950;2023-07-02T11:55:06;26.00;88.20
580;DHT22;276;48.392;9.950;2023-07-02T11:57:34;26.00;86.90
580;DHT22;276;48.392;9.950;2023-07-02T12:00:00;26.10;83.70
580;DHT22;276;48.392;9.950;2023-07-02T12:02:28;26.10;84.20
580;DHT22;276;48.392;9.950;2023-07-02T12:04:56;26.10;84.40
580;DHT22;276;48.392;9.950;2023-07-02T12:07:22;26.20;84.40
580;DHT22;276;48.392;9.950;2023-07-02T12:09:47;26.20;83.30
580;DHT22;276;48.392;9.950;2023-07-02T12:12:13;26.20;81.80
580;DHT22;276;48.392;9.950;2023-07-02T12:14:38;26.10;79.90
580;DHT22;276;48.392;9.950;2023-07-02T12:17:10;26.10;80.50
580;DHT22;276;48.392;9.950;2023-07-02T12:19:39;26.10;81.70
580;DHT22;276;48.392;9.950;2023-07-02T12:22:06;26.20;82.60
580;DHT22;276;48.392;9.950;2023-07-02T12:24:31;26.20;82.30
580;DHT22;276;48.392;9.950;2023-07-02T12:26:59;26.20;82.10
580;DHT22;276;48.392;9.950;2023-07-02T12:29:25;26.30;82.80
580;DHT22;276;48.392;9.950;2023-07-02T12:31:51;26.40;81.90
580;DHT22;276;48.392;9.950;2023-07-02T12:34:16;26.40;81.80
580;DHT22;276;48.392;9.950;2023-07-02T12:36:42;26.40;82.50
580;DHT22;276;48.392;9.950;2023-07-02T12:39:07;26.50;81.90
580;DHT22;276;48.392;9.950;2023-07-02T12:41:34;26.50;81.00
580;DHT22;276;48.392;9.950;2023-07-02T12:43:59;26.30;77.30
580;DHT22;276;48.392;9.950;2023-07-02T12:46:25;26.30;78.50
580;DHT22;276;48.392;9.950;2023-07-02T12:48:51;26.30;79.10
580;DHT22;276;48.392;9.950;2023-07-02T12:51:18;26.20;79.00
580;DHT22;276;48.392;9.950;2023-07-02T12:53:44;26.10;77.90
580;DHT22;276;48.392;9.950;2023-07-02T12:56:14;26.10;76.70
580;DHT22;276;48.392;9.950;2023-07-02T12:58:40;26.10;76.10
580;DHT22;276;48.392;9.950;2023-07-02T13:01:06;25.80;73.40
580;DHT22;276;48.392;9.950;2023-07-02T13:03:31;25.80;75.10
580;DHT22;276;48.392;9.950;2023-07-02T13:05:59;25.80;77.70
580;DHT22;276;48.392;9.950;2023-07-02T13:08:24;25.80;79.10
580;DHT22;276;48.392;9.950;2023-07-02T13:10:50;25.90;78.20
580;DHT22;276;48.392;9.950;2023-07-02T13:13:16;25.90;75.20
580;DHT22;276;48.392;9.950;2023-07-02T13:15:41;25.80;73.10
580;DHT22;276;48.392;9.950;2023-07-02T13:18:07;25.80;74.80
580;DHT22;276;48.392;9.950;2023-07-02T13:20:32;25.90;76.10
580;DHT22;276;48.392;9.950;2023-07-02T13:22:58;26.00;76.90
580;DHT22;276;48.392;9.950;2023-07-02T13:25:24;26.00;75.40
580;DHT22;276;48.392;9.950;2023-07-02T13:27:49;26.00;75.00
580;DHT22;276;48.392;9.950;2023-07-02T13:30:15;26.00;76.50
580;DHT22;276;48.392;9.950;2023-07-02T13:32:40;26.00;72.80
580;DHT22;276;48.392;9.950;2023-07-02T13:35:06;26.00;73.80
580;DHT22;276;48.392;9.950;2023-07-02T13:37:32;26.10;74.70
580;DHT22;276;48.392;9.950;2023-07-02T13:39:57;26.20;74.00
580;DHT22;276;48.392;9.950;2023-07-02T13:42:23;26.10;74.40
580;DHT22;276;48.392;9.950;2023-07-02T13:44:51;26.20;75.50
580;DHT22;276;48.392;9.950;2023-07-02T13:47:17;26.20;73.50
580;DHT22;276;48.392;9.950;2023-07-02T13:49:42;26.20;71.20
580;DHT22;276;48.392;9.950;2023-07-02T13:52:09;26.10;71.40
580;DHT22;276;48.392;9.950;2023-07-02T13:54:34;26.20;73.00
580;DHT22;276;48.392;9.950;2023-07-02T13:57:00;26.20;72.90
580;DHT22;276;48.392;9.950;2023-07-02T13:59:28;26.20;73.70
580;DHT22;276;48.392;9.950;2023-07-02T14:01:53;26.20;74.10
580;DHT22;276;48.392;9.950;2023-07-02T14:04:21;26.30;73.50
580;DHT22;276;48.392;9.950;2023-07-02T14:06:49;26.30;73.60
580;DHT22;276;48.392;9.950;2023-07-02T14:09:15;26.30;74.40
580;DHT22;276;48.392;9.950;2023-07-02T14:11:43;26.30;74.00
580;DHT22;276;48.392;9.950;2023-07-02T14:14:11;26.30;74.00
580;DHT22;276;48.392;9.950;2023-07-02T14:16:37;26.30;74.70
580;DHT22;276;48.392;9.950;2023-07-02T14:19:02;26.40;74.00
580;DHT22;276;48.392;9.950;2023-07-02T14:21:30;26.30;72.90
580;DHT22;276;48.392;9.950;2023-07-02T14:23:57;26.30;73.40
580;DHT22;276;48.392;9.950;2023-07-02T14:26:23;26.30;73.30
580;DHT22;276;48.392;9.950;2023-07-02T14:28:48;26.30;73.30
580;DHT22;276;48.392;9.950;2023-07-02T14:31:14;26.30;73.10
580;DHT22;276;48.392;9.950;2023-07-02T14:33:39;26.30;73.20
580;DHT22;276;48.392;9.950;2023-07-02T14:36:09;26.30;73.30
580;DHT22;276;48.392;9.950;2023-07-02T14:38:37;26.30;73.50
580;DHT22;276;48.392;9.950;2023-07-02T14:41:03;26.30;74.60
580;DHT22;276;48.392;9.950;2023-07-02T14:43:32;26.30;74.10
580;DHT22;276;48.392;9.950;2023-07-02T14:46:02;26.30;73.90
580;DHT22;276;48.392;9.950;2023-07-02T14:48:28;26.20;72.50
580;DHT22;276;48.392;9.950;2023-07-02T14:50:58;26.20;72.60
580;DHT22;276;48.392;9.950;2023-07-02T14:53:25;26.10;73.70
580;DHT22;276;48.392;9.950;2023-07-02T14:55:59;26.10;74.50
580;DHT22;276;48.392;9.950;2023-07-02T14:58:28;26.10;75.00
580;DHT22;276;48.392;9.950;2023-07-02T15:00:55;26.10;75.40
580;DHT22;276;48.392;9.950;2023-07-02T15:03:25;26.00;75.20
580;DHT22;276;48.392;9.950;2023-07-02T15:05:53;25.90;75.30
580;DHT22;276;48.392;9.950;2023-07-02T15:08:24;25.90;75.00
580;DHT22;276;48.392;9.950;2023-07-02T15:10:53;25.80;75.60
580;DHT22;276;48.392;9.950;2023-07-02T15:13:19;25.80;74.40
580;DHT22;276;48.392;9.950;2023-07-02T15:15:48;25.70;75.00
580;DHT22;276;48.392;9.950;2023-07-02T15:18:14;25.60;74.30
580;DHT22;276;48.392;9.950;2023-07-02T15:20:43;25.60;75.00
580;DHT22;276;48.392;9.950;2023-07-02T15:23:09;25.70;75.90
580;DHT22;276;48.392;9.950;2023-07-02T15:25:35;25.70;76.80
580;DHT22;276;48.392;9.950;2023-07-02T15:28:05;25.70;76.70
580;DHT22;276;48.392;9.950;2023-07-02T15:30:37;25.60;76.90
580;DHT22;276;48.392;9.950;2023-07-02T15:33:06;25.50;74.70
580;DHT22;276;48.392;9.950;2023-07-02T15:35:32;25.40;74.00
580;DHT22;276;48.392;9.950;2023-07-02T15:37:59;25.40;74.80
580;DHT22;276;48.392;9.950;2023-07-02T15:40:28;25.40;75.90
580;DHT22;276;48.392;9.950;2023-07-02T15:42:54;25.40;75.30
580;DHT22;276;48.392;9.950;2023-07-02T15:45:19;25.40;75.60
580;DHT22;276;48.392;9.950;2023-07-02T15:47:45;25.40;75.20
580;DHT22;276;48.392;9.950;2023-07-02T15:50:13;25.30;74.90
580;DHT22;276;48.392;9.950;2023-07-02T15:52:41;25.30;75.60
580;DHT22;276;48.392;9.950;2023-07-02T15:55:09;25.30;76.30
580;DHT22;276;48.392;9.950;2023-07-02T15:57:36;25.30;76.90
580;DHT22;276;48.392;9.950;2023-07-02T16:00:02;25.30;76.80
580;DHT22;276;48.392;9.950;2023-07-02T16:02:30;25.30;76.90
580;DHT22;276;48.392;9.950;2023-07-02T16:04:55;25.20;76.50
580;DHT22;276;48.392;9.950;2023-07-02T16:07:23;25.20;76.60
580;DHT22;276;48.392;9.950;2023-07-02T16:09:50;25.20;76.80
580;DHT22;276;48.392;9.950;2023-07-02T16:12:16;25.20;77.40
580;DHT22;276;48.392;9.950;2023-07-02T16:14:42;25.10;77.40
580;DHT22;276;48.392;9.950;2023-07-02T16:17:12;25.10;78.00
580;DHT22;276;48.392;9.950;2023-07-02T16:19:37;25.10;77.80
580;DHT22;276;48.392;9.950;2023-07-02T16:22:04;25.00;77.80
580;DHT22;276;48.392;9.950;2023-07-02T16:24:32;24.90;77.10
580;DHT22;276;48.392;9.950;2023-07-02T16:27:01;24.90;77.10
580;DHT22;276;48.392;9.950;2023-07-02T16:29:29;24.80;77.70
580;DHT22;276;48.392;9.950;2023-07-02T16:31:59;24.80;78.40
580;DHT22;276;48.392;9.950;2023-07-02T16:34:26;24.80;78.90
580;DHT22;276;48.392;9.950;2023-07-02T16:36:52;24.80;78.00
580;DHT22;276;48.392;9.950;2023-07-02T16:39:19;24.80;78.20
580;DHT22;276;48.392;9.950;2023-07-02T16:41:45;24.80;78.40
580;DHT22;276;48.392;9.950;2023-07-02T16:44:16;24.80;78.50